createdAt,value
2023-01-10T00:00:51.425Z,1008.19
2023-01-10T00:01:51.427Z,1008.23
2023-01-10T00:02:51.425Z,1008.21
2023-01-10T00:03:51.395Z,1008.26
2023-01-10T00:04:51.479Z,1008.37
2023-01-10T00:05:51.372Z,1008.40
2023-01-10T00:06:51.407Z,1008.39
2023-01-10T00:07:51.371Z,1008.37
2023-01-10T00:08:51.341Z,1008.31
2023-01-10T00:09:51.313Z,1008.39
2023-01-10T00:10:51.313Z,1008.38
2023-01-10T00:11:51.293Z,1008.34
2023-01-10T00:12:51.283Z,1008.33
2023-01-10T00:13:51.308Z,1008.45
2023-01-10T00:14:51.287Z,1008.39
2023-01-10T00:15:51.286Z,1008.46
2023-01-10T00:16:51.246Z,1008.47
2023-01-10T00:17:51.237Z,1008.54
2023-01-10T00:18:51.226Z,1008.53
2023-01-10T00:19:51.249Z,1008.54
2023-01-10T00:20:51.197Z,1008.59
2023-01-10T00:21:51.205Z,1008.59
2023-01-10T00:22:52.137Z,1008.59
2023-01-10T00:23:51.195Z,1008.61
2023-01-10T00:24:51.155Z,1008.62
2023-01-10T00:25:51.146Z,1008.63
2023-01-10T00:26:51.183Z,1008.64
2023-01-10T00:27:51.117Z,1008.73
2023-01-10T00:28:51.145Z,1008.72
2023-01-10T00:29:51.149Z,1008.71
2023-01-10T00:30:51.107Z,1008.74
2023-01-10T00:31:51.102Z,1008.75
2023-01-10T00:32:51.076Z,1008.82
2023-01-10T00:33:51.059Z,1008.78
2023-01-10T00:34:51.109Z,1008.91
2023-01-10T00:35:51.034Z,1008.95
2023-01-10T00:36:51.038Z,1008.90
2023-01-10T00:37:50.998Z,1009.01
2023-01-10T00:38:50.998Z,1008.93
2023-01-10T00:39:50.985Z,1008.92
2023-01-10T00:40:51.007Z,1008.94
2023-01-10T00:41:50.967Z,1008.94
2023-01-10T00:42:50.972Z,1008.96
2023-01-10T00:43:50.929Z,1009.05
2023-01-10T00:44:50.927Z,1009.01
2023-01-10T00:45:50.980Z,1009.03
2023-01-10T00:46:50.904Z,1009.16
2023-01-10T00:47:50.904Z,1009.10
2023-01-10T00:48:50.914Z,1009.11
2023-01-10T00:49:50.877Z,1009.17
2023-01-10T00:50:50.923Z,1009.18
2023-01-10T00:51:50.843Z,1009.15
2023-01-10T00:52:50.846Z,1009.17
2023-01-10T00:53:50.822Z,1009.19
2023-01-10T00:54:50.821Z,1009.24
2023-01-10T00:55:50.808Z,1009.30
2023-01-10T00:56:50.815Z,1009.26
2023-01-10T00:57:50.786Z,1009.27
2023-01-10T00:58:50.790Z,1009.26
2023-01-10T00:59:50.768Z,1009.36
2023-01-10T01:00:50.806Z,1009.37
2023-01-10T01:01:50.849Z,1009.35
2023-01-10T01:02:50.769Z,1009.34
2023-01-10T01:03:50.717Z,1009.45
2023-01-10T01:04:50.747Z,1009.46
2023-01-10T01:05:50.704Z,1009.47
2023-01-10T01:06:51.653Z,1009.51
2023-01-10T01:07:50.667Z,1009.56
2023-01-10T01:08:50.658Z,1009.61
2023-01-10T01:09:50.663Z,1009.63
2023-01-10T01:10:50.648Z,1009.68
2023-01-10T01:11:50.655Z,1009.68
2023-01-10T01:12:50.636Z,1009.76
2023-01-10T01:13:50.606Z,1009.79
2023-01-10T01:14:50.625Z,1009.75
2023-01-10T01:15:50.592Z,1009.74
2023-01-10T01:16:50.583Z,1009.74
2023-01-10T01:17:50.597Z,1009.71
2023-01-10T01:18:50.543Z,1009.83
2023-01-10T01:19:50.544Z,1009.80
2023-01-10T01:20:50.529Z,1009.84
2023-01-10T01:21:50.533Z,1009.92
2023-01-10T01:22:50.544Z,1009.94
2023-01-10T01:23:50.487Z,1009.95
2023-01-10T01:24:50.509Z,1009.99
2023-01-10T01:25:50.492Z,1010.00
2023-01-10T01:26:50.469Z,1010.06
2023-01-10T01:27:50.448Z,1010.05
2023-01-10T01:28:50.437Z,1010.05
2023-01-10T01:29:50.449Z,1010.12
2023-01-10T01:30:50.477Z,1010.08
2023-01-10T01:31:50.413Z,1010.06
2023-01-10T01:32:50.415Z,1010.08
2023-01-10T01:33:50.379Z,1010.12
2023-01-10T01:34:50.408Z,1010.17
2023-01-10T01:35:50.378Z,1010.15
2023-01-10T01:36:50.349Z,1010.22
2023-01-10T01:37:50.348Z,1010.23
2023-01-10T01:38:50.328Z,1010.22
2023-01-10T01:39:50.331Z,1010.23
2023-01-10T01:40:50.331Z,1010.26
2023-01-10T01:41:50.292Z,1010.33
2023-01-10T01:42:50.279Z,1010.30
2023-01-10T01:43:50.259Z,1010.31
2023-01-10T01:44:50.259Z,1010.37
2023-01-10T01:45:50.276Z,1010.35
2023-01-10T01:46:50.232Z,1010.39
2023-01-10T01:47:50.221Z,1010.39
2023-01-10T01:48:50.231Z,1010.42
2023-01-10T01:49:50.198Z,1010.41
2023-01-10T01:50:50.219Z,1010.39
2023-01-10T01:51:50.190Z,1010.39
2023-01-10T01:52:50.180Z,1010.39
2023-01-10T01:53:50.156Z,1010.43
2023-01-10T01:54:50.161Z,1010.41
2023-01-10T01:55:50.142Z,1010.43
2023-01-10T01:56:50.151Z,1010.48
2023-01-10T01:57:50.110Z,1010.43
2023-01-10T01:58:50.100Z,1010.49
2023-01-10T01:59:50.081Z,1010.49
2023-01-10T02:00:50.235Z,1010.53
2023-01-10T02:01:50.145Z,1010.52
2023-01-10T02:03:01.749Z,1010.52
2023-01-10T02:03:51.149Z,1010.45
2023-01-10T02:04:50.033Z,1010.45
2023-01-10T02:05:50.025Z,1010.48
2023-01-10T02:06:50.034Z,1010.54
2023-01-10T02:07:50.035Z,1010.50
2023-01-10T02:08:49.999Z,1010.62
2023-01-10T02:09:49.988Z,1010.59
2023-01-10T02:10:49.996Z,1010.55
2023-01-10T02:11:49.972Z,1010.58
2023-01-10T02:12:49.978Z,1010.64
2023-01-10T02:13:49.945Z,1010.56
2023-01-10T02:14:49.925Z,1010.66
2023-01-10T02:15:49.956Z,1010.63
2023-01-10T02:16:49.910Z,1010.60
2023-01-10T02:17:49.907Z,1010.69
2023-01-10T02:18:49.884Z,1010.64
2023-01-10T02:19:49.897Z,1010.61
2023-01-10T02:20:49.920Z,1010.68
2023-01-10T02:21:49.856Z,1010.62
2023-01-10T02:22:49.869Z,1010.63
2023-01-10T02:23:49.827Z,1010.61
2023-01-10T02:24:49.846Z,1010.66
2023-01-10T02:25:49.801Z,1010.68
2023-01-10T02:26:49.805Z,1010.60
2023-01-10T02:27:49.787Z,1010.63
2023-01-10T02:28:49.799Z,1010.66
2023-01-10T02:29:49.766Z,1010.59
2023-01-10T02:30:49.757Z,1010.56
2023-01-10T02:31:49.777Z,1010.64
2023-01-10T02:33:04.267Z,1010.71
2023-01-10T02:33:50.839Z,1010.69
2023-01-10T02:34:49.738Z,1010.75
2023-01-10T02:35:49.690Z,1010.74
2023-01-10T02:36:49.680Z,1010.70
2023-01-10T02:37:49.701Z,1010.75
2023-01-10T02:38:49.678Z,1010.77
2023-01-10T02:39:49.817Z,1010.73
2023-01-10T02:40:49.670Z,1010.81
2023-01-10T02:41:49.647Z,1010.78
2023-01-10T02:42:49.721Z,1010.76
2023-01-10T02:43:49.611Z,1010.80
2023-01-10T02:44:49.619Z,1010.81
2023-01-10T02:45:49.590Z,1010.76
2023-01-10T02:46:49.625Z,1010.75
2023-01-10T02:47:49.557Z,1010.79
2023-01-10T02:48:49.581Z,1010.79
2023-01-10T02:49:49.559Z,1010.78
2023-01-10T02:50:49.543Z,1010.76
2023-01-10T02:51:50.465Z,1010.80
2023-01-10T02:52:49.519Z,1010.89
2023-01-10T02:53:49.482Z,1010.92
2023-01-10T02:54:49.498Z,1010.84
2023-01-10T02:55:49.465Z,1010.81
2023-01-10T02:56:50.410Z,1010.79
2023-01-10T02:57:49.446Z,1010.81
2023-01-10T02:58:49.446Z,1010.82
2023-01-10T02:59:49.455Z,1010.87
2023-01-10T03:00:49.408Z,1010.84
2023-01-10T03:01:49.454Z,1010.86
2023-01-10T03:02:49.416Z,1010.90
2023-01-10T03:03:49.378Z,1010.81
2023-01-10T03:04:49.408Z,1010.89
2023-01-10T03:05:49.372Z,1010.89
2023-01-10T03:06:49.364Z,1011.00
2023-01-10T03:07:49.332Z,1010.92
2023-01-10T03:08:49.331Z,1011.02
2023-01-10T03:09:49.324Z,1010.97
2023-01-10T03:10:49.338Z,1011.03
2023-01-10T03:11:49.285Z,1011.06
2023-01-10T03:12:49.277Z,1011.12
2023-01-10T03:13:49.269Z,1011.05
2023-01-10T03:14:49.262Z,1011.16
2023-01-10T03:15:49.290Z,1011.13
2023-01-10T03:16:49.268Z,1011.15
2023-01-10T03:17:49.219Z,1011.17
2023-01-10T03:18:49.233Z,1011.24
2023-01-10T03:19:49.199Z,1011.17
2023-01-10T03:20:49.221Z,1011.22
2023-01-10T03:21:49.179Z,1011.22
2023-01-10T03:22:49.159Z,1011.20
2023-01-10T03:23:49.197Z,1011.24
2023-01-10T03:24:49.142Z,1011.26
2023-01-10T03:25:49.133Z,1011.22
2023-01-10T03:26:49.127Z,1011.23
2023-01-10T03:27:49.119Z,1011.29
2023-01-10T03:28:49.146Z,1011.31
2023-01-10T03:29:49.110Z,1011.33
2023-01-10T03:30:49.082Z,1011.29
2023-01-10T03:31:49.078Z,1011.28
2023-01-10T03:32:49.050Z,1011.31
2023-01-10T03:33:49.066Z,1011.32
2023-01-10T03:34:49.061Z,1011.33
2023-01-10T03:35:49.030Z,1011.39
2023-01-10T03:36:49.014Z,1011.48
2023-01-10T03:37:49.016Z,1011.47
2023-01-10T03:38:48.992Z,1011.42
2023-01-10T03:39:48.992Z,1011.47
2023-01-10T03:40:48.994Z,1011.46
2023-01-10T03:41:48.968Z,1011.39
2023-01-10T03:42:48.953Z,1011.44
2023-01-10T03:43:48.968Z,1011.40
2023-01-10T03:44:48.933Z,1011.43
2023-01-10T03:45:48.935Z,1011.43
2023-01-10T03:46:48.978Z,1011.46
2023-01-10T03:47:48.938Z,1011.49
2023-01-10T03:48:48.904Z,1011.43
2023-01-10T03:49:48.936Z,1011.46
2023-01-10T03:50:48.864Z,1011.51
2023-01-10T03:51:48.873Z,1011.50
2023-01-10T03:52:48.844Z,1011.49
2023-01-10T03:53:48.846Z,1011.54
2023-01-10T03:54:48.821Z,1011.62
2023-01-10T03:55:48.828Z,1011.65
2023-01-10T03:56:48.819Z,1011.63
2023-01-10T03:57:48.803Z,1011.62
2023-01-10T03:58:48.775Z,1011.65
2023-01-10T03:59:48.770Z,1011.63
2023-01-10T04:00:48.814Z,1011.61
2023-01-10T04:01:48.853Z,1011.66
2023-01-10T04:02:48.732Z,1011.69
2023-01-10T04:03:48.748Z,1011.78
2023-01-10T04:04:48.753Z,1011.77
2023-01-10T04:05:48.729Z,1011.80
2023-01-10T04:06:48.694Z,1011.85
2023-01-10T04:07:48.715Z,1011.84
2023-01-10T04:08:48.706Z,1011.80
2023-01-10T04:09:49.632Z,1011.86
2023-01-10T04:10:48.648Z,1011.78
2023-01-10T04:11:48.654Z,1011.83
2023-01-10T04:12:48.629Z,1011.89
2023-01-10T04:13:48.656Z,1011.92
2023-01-10T04:14:48.604Z,1011.93
2023-01-10T04:15:48.603Z,1011.94
2023-01-10T04:16:48.597Z,1011.98
2023-01-10T04:17:48.626Z,1011.94
2023-01-10T04:18:48.588Z,1011.96
2023-01-10T04:19:48.561Z,1011.91
2023-01-10T04:20:50.663Z,1011.94
2023-01-10T04:21:48.550Z,1012.01
2023-01-10T04:22:48.641Z,1011.96
2023-01-10T04:23:48.530Z,1011.96
2023-01-10T04:24:48.501Z,1012.02
2023-01-10T04:25:48.495Z,1012.02
2023-01-10T04:26:48.478Z,1012.04
2023-01-10T04:27:48.499Z,1012.06
2023-01-10T04:28:48.482Z,1012.02
2023-01-10T04:29:48.447Z,1012.09
2023-01-10T04:30:48.454Z,1012.10
2023-01-10T04:31:48.510Z,1012.07
2023-01-10T04:32:48.484Z,1012.11
2023-01-10T04:33:48.420Z,1012.08
2023-01-10T04:34:48.384Z,1012.10
2023-01-10T04:35:48.404Z,1012.10
2023-01-10T04:36:50.470Z,1012.10
2023-01-10T04:37:48.388Z,1012.13
2023-01-10T04:38:48.353Z,1012.13
2023-01-10T04:39:48.368Z,1012.12
2023-01-10T04:40:48.316Z,1012.05
2023-01-10T04:41:48.329Z,1012.07
2023-01-10T04:42:48.294Z,1012.09
2023-01-10T04:43:48.313Z,1012.08
2023-01-10T04:44:49.224Z,1012.07
2023-01-10T04:45:48.303Z,1012.08
2023-01-10T04:46:48.258Z,1012.09
2023-01-10T04:47:48.284Z,1012.06
2023-01-10T04:48:48.240Z,1012.08
2023-01-10T04:49:48.260Z,1012.07
2023-01-10T04:50:48.239Z,1012.06
2023-01-10T04:51:48.196Z,1012.07
2023-01-10T04:52:48.230Z,1012.07
2023-01-10T04:53:48.186Z,1012.08
2023-01-10T04:54:48.182Z,1012.09
2023-01-10T04:55:48.160Z,1012.12
2023-01-10T04:56:48.141Z,1012.12
2023-01-10T04:57:48.141Z,1012.07
2023-01-10T04:58:48.157Z,1012.08
2023-01-10T04:59:48.136Z,1012.14
2023-01-10T05:00:48.124Z,1012.13
2023-01-10T05:01:48.181Z,1012.14
2023-01-10T05:02:48.279Z,1012.18
2023-01-10T05:03:48.098Z,1012.15
2023-01-10T05:04:48.078Z,1012.12
2023-01-10T05:05:49.507Z,1012.10
2023-01-10T05:06:48.058Z,1012.11
2023-01-10T05:07:48.045Z,1012.14
2023-01-10T05:08:48.056Z,1012.14
2023-01-10T05:09:48.620Z,1012.20
2023-01-10T05:10:47.982Z,1012.15
2023-01-10T05:11:47.993Z,1012.18
2023-01-10T05:12:48.099Z,1012.29
2023-01-10T05:13:48.313Z,1012.25
2023-01-10T05:14:47.947Z,1012.29
2023-01-10T05:15:47.995Z,1012.32
2023-01-10T05:16:47.975Z,1012.37
2023-01-10T05:17:48.060Z,1012.42
2023-01-10T05:18:47.920Z,1012.49
2023-01-10T05:19:48.092Z,1012.47
2023-01-10T05:20:48.859Z,1012.48
2023-01-10T05:21:47.892Z,1012.47
2023-01-10T05:22:47.873Z,1012.43
2023-01-10T05:23:47.854Z,1012.46
2023-01-10T05:24:49.292Z,1012.46
2023-01-10T05:25:47.871Z,1012.43
2023-01-10T05:26:47.861Z,1012.43
2023-01-10T05:27:47.963Z,1012.48
2023-01-10T05:28:47.806Z,1012.49
2023-01-10T05:29:47.801Z,1012.45
2023-01-10T05:30:48.245Z,1012.53
2023-01-10T05:31:47.793Z,1012.46
2023-01-10T05:32:47.781Z,1012.56
2023-01-10T05:33:48.562Z,1012.56
2023-01-10T05:34:47.719Z,1012.58
2023-01-10T05:35:47.718Z,1012.50
2023-01-10T05:36:47.718Z,1012.55
2023-01-10T05:37:47.729Z,1012.54
2023-01-10T05:38:47.694Z,1012.62
2023-01-10T05:39:47.675Z,1012.64
2023-01-10T05:40:47.664Z,1012.62
2023-01-10T05:41:47.678Z,1012.66
2023-01-10T05:42:48.588Z,1012.64
2023-01-10T05:43:47.681Z,1012.75
2023-01-10T05:44:47.640Z,1012.67
2023-01-10T05:45:47.682Z,1012.67
2023-01-10T05:46:47.627Z,1012.74
2023-01-10T05:47:47.613Z,1012.78
2023-01-10T05:48:47.579Z,1012.74
2023-01-10T05:49:47.596Z,1012.76
2023-01-10T05:50:47.579Z,1012.74
2023-01-10T05:51:47.608Z,1012.80
2023-01-10T05:52:49.490Z,1012.76
2023-01-10T05:53:52.778Z,1012.73
2023-01-10T05:54:47.511Z,1012.69
2023-01-10T05:55:47.513Z,1012.71
2023-01-10T05:56:47.507Z,1012.70
2023-01-10T05:57:47.486Z,1012.69
2023-01-10T05:58:51.442Z,1012.67
2023-01-10T05:59:48.501Z,1012.72
2023-01-10T06:00:47.458Z,1012.75
2023-01-10T06:01:47.447Z,1012.76
2023-01-10T06:02:47.550Z,1012.81
2023-01-10T06:03:47.409Z,1012.78
2023-01-10T06:04:48.377Z,1012.92
2023-01-10T06:05:48.934Z,1013.01
2023-01-10T06:06:47.391Z,1013.04
2023-01-10T06:07:47.379Z,1013.05
2023-01-10T06:08:47.376Z,1013.09
2023-01-10T06:09:47.353Z,1013.11
2023-01-10T06:10:47.350Z,1013.04
2023-01-10T06:11:47.363Z,1013.11
2023-01-10T06:12:47.335Z,1013.15
2023-01-10T06:13:47.304Z,1013.12
2023-01-10T06:14:47.293Z,1013.19
2023-01-10T06:15:47.357Z,1013.29
2023-01-10T06:16:47.278Z,1013.26
2023-01-10T06:17:47.333Z,1013.25
2023-01-10T06:18:47.260Z,1013.29
2023-01-10T06:19:47.238Z,1013.24
2023-01-10T06:20:47.236Z,1013.26
2023-01-10T06:21:48.050Z,1013.26
2023-01-10T06:22:47.201Z,1013.33
2023-01-10T06:23:47.195Z,1013.38
2023-01-10T06:24:47.217Z,1013.37
2023-01-10T06:25:47.202Z,1013.38
2023-01-10T06:26:47.163Z,1013.26
2023-01-10T06:27:47.319Z,1013.30
2023-01-10T06:28:47.159Z,1013.37
2023-01-10T06:29:47.175Z,1013.46
2023-01-10T06:30:47.155Z,1013.52
2023-01-10T06:31:47.124Z,1013.49
2023-01-10T06:32:47.126Z,1013.51
2023-01-10T06:33:47.199Z,1013.56
2023-01-10T06:34:47.125Z,1013.51
2023-01-10T06:35:47.102Z,1013.55
2023-01-10T06:36:47.058Z,1013.54
2023-01-10T06:37:47.047Z,1013.60
2023-01-10T06:38:47.078Z,1013.62
2023-01-10T06:39:47.361Z,1013.56
2023-01-10T06:40:47.036Z,1013.60
2023-01-10T06:41:47.489Z,1013.54
2023-01-10T06:42:46.994Z,1013.57
2023-01-10T06:43:47.037Z,1013.60
2023-01-10T06:44:46.976Z,1013.63
2023-01-10T06:45:47.167Z,1013.66
2023-01-10T06:46:46.956Z,1013.65
2023-01-10T06:47:46.986Z,1013.65
2023-01-10T06:48:46.942Z,1013.62
2023-01-10T06:49:46.911Z,1013.69
2023-01-10T06:50:46.906Z,1013.70
2023-01-10T06:51:47.747Z,1013.65
2023-01-10T06:52:47.114Z,1013.78
2023-01-10T06:53:47.098Z,1013.75
2023-01-10T06:54:47.269Z,1013.76
2023-01-10T06:55:47.219Z,1013.82
2023-01-10T06:56:46.878Z,1013.82
2023-01-10T06:57:46.836Z,1013.81
2023-01-10T06:58:46.819Z,1013.92
2023-01-10T06:59:47.096Z,1013.93
2023-01-10T07:00:46.819Z,1013.90
2023-01-10T07:01:46.972Z,1013.94
2023-01-10T07:02:47.153Z,1013.97
2023-01-10T07:03:46.832Z,1013.98
2023-01-10T07:04:46.769Z,1014.04
2023-01-10T07:05:46.794Z,1014.02
2023-01-10T07:06:46.740Z,1014.05
2023-01-10T07:07:46.720Z,1014.07
2023-01-10T07:08:46.723Z,1014.12
2023-01-10T07:09:46.705Z,1014.07
2023-01-10T07:10:46.739Z,1014.07
2023-01-10T07:11:46.819Z,1014.07
2023-01-10T07:12:46.725Z,1014.11
2023-01-10T07:13:46.648Z,1014.08
2023-01-10T07:14:46.673Z,1014.05
2023-01-10T07:15:46.647Z,1014.07
2023-01-10T07:16:46.639Z,1014.05
2023-01-10T07:17:46.638Z,1014.06
2023-01-10T07:18:46.606Z,1014.06
2023-01-10T07:19:46.647Z,1014.05
2023-01-10T07:20:46.581Z,1014.10
2023-01-10T07:21:46.581Z,1014.11
2023-01-10T07:22:46.564Z,1014.12
2023-01-10T07:23:46.545Z,1014.19
2023-01-10T07:24:46.568Z,1014.22
2023-01-10T07:25:46.571Z,1014.24
2023-01-10T07:26:46.521Z,1014.28
2023-01-10T07:27:46.513Z,1014.25
2023-01-10T07:28:46.879Z,1014.24
2023-01-10T07:29:46.503Z,1014.18
2023-01-10T07:30:46.506Z,1014.18
2023-01-10T07:31:46.484Z,1014.23
2023-01-10T07:32:46.443Z,1014.24
2023-01-10T07:33:46.450Z,1014.25
2023-01-10T07:34:46.436Z,1014.24
2023-01-10T07:35:46.430Z,1014.22
2023-01-10T07:36:46.418Z,1014.23
2023-01-10T07:37:46.395Z,1014.15
2023-01-10T07:38:47.341Z,1014.21
2023-01-10T07:39:46.395Z,1014.28
2023-01-10T07:40:46.358Z,1014.26
2023-01-10T07:41:46.389Z,1014.35
2023-01-10T07:42:46.349Z,1014.36
2023-01-10T07:43:46.341Z,1014.32
2023-01-10T07:44:48.647Z,1014.36
2023-01-10T07:45:46.331Z,1014.39
2023-01-10T07:46:46.286Z,1014.43
2023-01-10T07:47:47.748Z,1014.41
2023-01-10T07:48:46.307Z,1014.48
2023-01-10T07:49:46.359Z,1014.40
2023-01-10T07:50:46.264Z,1014.44
2023-01-10T07:51:46.290Z,1014.42
2023-01-10T07:52:46.236Z,1014.48
2023-01-10T07:53:46.321Z,1014.51
2023-01-10T07:54:46.239Z,1014.52
2023-01-10T07:55:46.235Z,1014.49
2023-01-10T07:56:46.221Z,1014.50
2023-01-10T07:57:46.213Z,1014.52
2023-01-10T07:58:46.181Z,1014.55
2023-01-10T07:59:46.292Z,1014.64
2023-01-10T08:00:46.179Z,1014.64
2023-01-10T08:01:46.156Z,1014.61
2023-01-10T08:02:46.289Z,1014.64
2023-01-10T08:03:46.226Z,1014.61
2023-01-10T08:04:46.103Z,1014.65
2023-01-10T08:05:46.124Z,1014.59
2023-01-10T08:06:46.084Z,1014.65
2023-01-10T08:07:46.083Z,1014.72
2023-01-10T08:08:46.108Z,1014.81
2023-01-10T08:09:46.053Z,1014.71
2023-01-10T08:10:46.053Z,1014.73
2023-01-10T08:11:46.061Z,1014.76
2023-01-10T08:12:46.005Z,1014.76
2023-01-10T08:13:46.123Z,1014.81
2023-01-10T08:14:46.047Z,1014.81
2023-01-10T08:15:46.010Z,1014.79
2023-01-10T08:16:45.966Z,1014.83
2023-01-10T08:17:45.955Z,1014.85
2023-01-10T08:18:46.001Z,1014.88
2023-01-10T08:19:45.970Z,1014.88
2023-01-10T08:20:45.923Z,1014.93
2023-01-10T08:21:45.944Z,1014.96
2023-01-10T08:22:45.921Z,1014.94
2023-01-10T08:23:45.905Z,1014.98
2023-01-10T08:24:45.961Z,1014.90
2023-01-10T08:25:45.865Z,1014.91
2023-01-10T08:26:45.867Z,1014.97
2023-01-10T08:27:45.899Z,1014.90
2023-01-10T08:28:45.846Z,1014.95
2023-01-10T08:29:45.830Z,1014.92
2023-01-10T08:30:45.847Z,1014.92
2023-01-10T08:31:45.861Z,1014.92
2023-01-10T08:32:45.827Z,1014.92
2023-01-10T08:33:45.823Z,1014.92
2023-01-10T08:34:45.765Z,1014.92
2023-01-10T08:35:45.758Z,1014.92
2023-01-10T08:36:45.760Z,1014.94
2023-01-10T08:37:45.756Z,1014.94
2023-01-10T08:38:45.934Z,1014.95
2023-01-10T08:39:45.803Z,1014.96
2023-01-10T08:40:45.702Z,1015.02
2023-01-10T08:41:45.692Z,1014.95
2023-01-10T08:42:45.690Z,1015.01
2023-01-10T08:43:45.668Z,1015.04
2023-01-10T08:44:45.684Z,1014.94
2023-01-10T08:45:45.648Z,1015.05
2023-01-10T08:46:45.896Z,1015.05
2023-01-10T08:47:45.634Z,1015.10
2023-01-10T08:48:45.618Z,1015.10
2023-01-10T08:49:46.562Z,1015.14
2023-01-10T08:50:45.639Z,1015.09
2023-01-10T08:51:45.585Z,1015.08
2023-01-10T08:52:45.570Z,1015.02
2023-01-10T08:53:45.560Z,1015.09
2023-01-10T08:54:45.541Z,1015.04
2023-01-10T08:55:45.555Z,1015.02
2023-01-10T08:56:45.549Z,1014.98
2023-01-10T08:57:45.543Z,1015.02
2023-01-10T08:58:45.526Z,1015.08
2023-01-10T08:59:45.512Z,1015.07
2023-01-10T09:00:45.494Z,1015.07
2023-01-10T09:01:45.568Z,1015.07
2023-01-10T09:02:45.525Z,1015.09
2023-01-10T09:03:45.463Z,1015.10
2023-01-10T09:04:45.496Z,1015.09
2023-01-10T09:05:45.436Z,1015.09
2023-01-10T09:06:45.425Z,1015.14
2023-01-10T09:07:46.392Z,1015.12
2023-01-10T09:08:45.388Z,1015.16
2023-01-10T09:09:45.400Z,1015.11
2023-01-10T09:10:45.413Z,1015.14
2023-01-10T09:11:45.385Z,1015.17
2023-01-10T09:12:45.399Z,1015.07
2023-01-10T09:13:45.364Z,1015.04
2023-01-10T09:14:45.332Z,1015.02
2023-01-10T09:15:45.361Z,1015.04
2023-01-10T09:16:45.316Z,1015.07
2023-01-10T09:17:45.306Z,1015.06
2023-01-10T09:18:45.319Z,1015.10
2023-01-10T09:19:45.291Z,1015.08
2023-01-10T09:20:45.282Z,1015.14
2023-01-10T09:21:45.270Z,1015.06
2023-01-10T09:22:45.283Z,1015.11
2023-01-10T09:23:45.233Z,1015.08
2023-01-10T09:24:45.239Z,1015.03
2023-01-10T09:25:45.275Z,1015.05
2023-01-10T09:26:45.219Z,1015.10
2023-01-10T09:27:45.225Z,1015.10
2023-01-10T09:28:47.413Z,1015.10
2023-01-10T09:29:45.175Z,1015.12
2023-01-10T09:30:45.160Z,1015.05
2023-01-10T09:31:45.367Z,1015.03
2023-01-10T09:32:45.126Z,1015.10
2023-01-10T09:33:47.495Z,1015.16
2023-01-10T09:34:45.100Z,1015.14
2023-01-10T09:35:45.141Z,1015.14
2023-01-10T09:36:45.139Z,1015.02
2023-01-10T09:37:45.083Z,1015.00
2023-01-10T09:38:45.338Z,1015.03
2023-01-10T09:39:45.091Z,1015.08
2023-01-10T09:40:45.034Z,1015.02
2023-01-10T09:41:45.074Z,1015.06
2023-01-10T09:42:45.041Z,1015.04
2023-01-10T09:43:45.001Z,1015.04
2023-01-10T09:44:45.093Z,1015.06
2023-01-10T09:45:45.002Z,1014.99
2023-01-10T09:46:45.061Z,1015.16
2023-01-10T09:47:45.023Z,1015.10
2023-01-10T09:48:44.961Z,1015.06
2023-01-10T09:49:44.943Z,1015.11
2023-01-10T09:50:44.954Z,1015.14
2023-01-10T09:51:44.926Z,1015.11
2023-01-10T09:52:44.974Z,1015.12
2023-01-10T09:53:45.430Z,1015.11
2023-01-10T09:54:44.885Z,1015.10
2023-01-10T09:55:44.877Z,1015.12
2023-01-10T09:56:44.865Z,1015.10
2023-01-10T09:57:44.866Z,1015.10
2023-01-10T09:58:44.875Z,1015.00
2023-01-10T09:59:44.843Z,1015.04
2023-01-10T10:00:44.815Z,1015.10
2023-01-10T10:01:44.826Z,1015.12
2023-01-10T10:02:44.837Z,1015.09
2023-01-10T10:03:44.904Z,1015.10
2023-01-10T10:04:44.804Z,1015.08
2023-01-10T10:05:45.726Z,1015.08
2023-01-10T10:06:44.755Z,1015.10
2023-01-10T10:07:44.752Z,1015.09
2023-01-10T10:08:44.730Z,1015.07
2023-01-10T10:09:44.731Z,1015.03
2023-01-10T10:10:44.750Z,1015.03
2023-01-10T10:11:44.697Z,1015.16
2023-01-10T10:12:44.685Z,1015.10
2023-01-10T10:13:44.699Z,1015.12
2023-01-10T10:14:44.685Z,1014.99
2023-01-10T10:15:44.659Z,1015.09
2023-01-10T10:16:44.681Z,1015.06
2023-01-10T10:17:44.666Z,1015.03
2023-01-10T10:18:44.648Z,1015.02
2023-01-10T10:19:44.645Z,1015.07
2023-01-10T10:20:44.619Z,1015.03
2023-01-10T10:21:44.599Z,1015.04
2023-01-10T10:22:44.632Z,1015.05
2023-01-10T10:23:44.577Z,1014.98
2023-01-10T10:24:44.559Z,1015.01
2023-01-10T10:25:44.557Z,1015.01
2023-01-10T10:26:44.565Z,1015.03
2023-01-10T10:27:44.527Z,1015.05
2023-01-10T10:28:53.860Z,1015.00
2023-01-10T10:29:45.494Z,1015.06
2023-01-10T10:30:44.507Z,1015.06
2023-01-10T10:31:44.553Z,1015.03
2023-01-10T10:32:44.490Z,1015.03
2023-01-10T10:33:44.475Z,1015.08
2023-01-10T10:34:44.472Z,1015.07
2023-01-10T10:35:44.447Z,1015.08
2023-01-10T10:36:44.440Z,1015.05
2023-01-10T10:37:44.411Z,1015.19
2023-01-10T10:38:44.401Z,1015.13
2023-01-10T10:39:44.410Z,1015.16
2023-01-10T10:40:44.380Z,1015.21
2023-01-10T10:41:44.375Z,1015.13
2023-01-10T10:42:44.361Z,1015.07
2023-01-10T10:43:44.400Z,1015.16
2023-01-10T10:44:44.418Z,1015.05
2023-01-10T10:45:44.354Z,1015.04
2023-01-10T10:46:44.330Z,1015.01
2023-01-10T10:47:44.295Z,1014.96
2023-01-10T10:48:44.283Z,1014.95
2023-01-10T10:49:44.308Z,1014.93
2023-01-10T10:50:44.310Z,1014.85
2023-01-10T10:51:44.286Z,1014.91
2023-01-10T10:52:44.264Z,1014.85
2023-01-10T10:53:44.232Z,1014.86
2023-01-10T10:54:45.827Z,1014.77
2023-01-10T10:55:44.211Z,1014.75
2023-01-10T10:56:44.207Z,1014.77
2023-01-10T10:57:59.002Z,1014.73
2023-01-10T10:58:45.179Z,1014.71
2023-01-10T10:59:44.178Z,1014.69
2023-01-10T11:00:44.205Z,1014.72
2023-01-10T11:01:44.203Z,1014.65
2023-01-10T11:02:44.139Z,1014.66
2023-01-10T11:03:44.122Z,1014.69
2023-01-10T11:04:44.218Z,1014.58
2023-01-10T11:05:44.145Z,1014.61
2023-01-10T11:06:44.077Z,1014.59
2023-01-10T11:07:44.102Z,1014.57
2023-01-10T11:08:44.070Z,1014.54
2023-01-10T11:09:44.079Z,1014.50
2023-01-10T11:10:44.073Z,1014.46
2023-01-10T11:11:44.050Z,1014.46
2023-01-10T11:12:44.033Z,1014.48
2023-01-10T11:13:44.010Z,1014.46
2023-01-10T11:14:44.033Z,1014.36
2023-01-10T11:15:43.996Z,1014.40
2023-01-10T11:16:44.033Z,1014.40
2023-01-10T11:17:43.969Z,1014.40
2023-01-10T11:18:43.970Z,1014.41
2023-01-10T11:19:43.940Z,1014.37
2023-01-10T11:20:43.950Z,1014.47
2023-01-10T11:21:43.951Z,1014.42
2023-01-10T11:22:43.916Z,1014.43
2023-01-10T11:23:43.909Z,1014.48
2023-01-10T11:24:43.914Z,1014.40
2023-01-10T11:25:43.891Z,1014.46
2023-01-10T11:26:43.861Z,1014.44
2023-01-10T11:27:43.884Z,1014.41
2023-01-10T11:28:43.855Z,1014.42
2023-01-10T11:29:43.827Z,1014.39
2023-01-10T11:30:43.832Z,1014.45
2023-01-10T11:31:43.889Z,1014.43
2023-01-10T11:32:44.060Z,1014.40
2023-01-10T11:33:43.788Z,1014.45
2023-01-10T11:34:43.795Z,1014.37
2023-01-10T11:35:43.766Z,1014.42
2023-01-10T11:36:43.756Z,1014.46
2023-01-10T11:37:43.767Z,1014.44
2023-01-10T11:38:43.790Z,1014.46
2023-01-10T11:39:43.727Z,1014.43
2023-01-10T11:40:43.723Z,1014.44
2023-01-10T11:41:43.713Z,1014.41
2023-01-10T11:42:43.692Z,1014.42
2023-01-10T11:43:43.684Z,1014.43
2023-01-10T11:44:43.700Z,1014.38
2023-01-10T11:45:43.705Z,1014.32
2023-01-10T11:46:43.651Z,1014.30
2023-01-10T11:47:45.717Z,1014.33
2023-01-10T11:49:04.365Z,1014.30
2023-01-10T11:49:44.623Z,1014.28
2023-01-10T11:50:43.592Z,1014.28
2023-01-10T11:51:43.589Z,1014.23
2023-01-10T11:52:43.601Z,1014.27
2023-01-10T11:53:43.605Z,1014.29
2023-01-10T11:54:43.569Z,1014.26
2023-01-10T11:55:43.550Z,1014.27
2023-01-10T11:56:43.671Z,1014.28
2023-01-10T11:57:44.200Z,1014.29
2023-01-10T11:58:43.550Z,1014.24
2023-01-10T11:59:43.501Z,1014.23
2023-01-10T12:00:43.870Z,1014.21
2023-01-10T12:01:43.482Z,1014.24
2023-01-10T12:02:43.512Z,1014.21
2023-01-10T12:03:43.476Z,1014.16
2023-01-10T12:04:43.491Z,1014.16
2023-01-10T12:05:43.436Z,1014.14